Time;durP1;ratioP1;P1;durP2;ratioP2;P2;SDS_P1;SDS_P2;PMS_P1;PMS_P2;Temp;Humidity;BMP_temperature;BMP_pressure;BME280_temperature;BME280_humidity;BME280_pressure;Samples;Min_cycle;Max_cycle;Signal;HPM_P1;HPM_P2
2023/09/21 00:00:13;;;;;;;4.97;1.63;;;;;;;;;;5079469;28;20123;-66
2023/09/21 00:02:49;;;;;;;6.63;2.15;;;;;;;;;;5080599;28;20044;-66
2023/09/21 00:05:17;;;;;;;5.20;1.77;;;;;;;;;;5080176;28;20023;-66
2023/09/21 00:07:44;;;;;;;5.82;1.33;;;;;;;;;;5079340;28;20478;-67
2023/09/21 00:10:10;;;;;;;10.88;2.35;;;;;;;;;;5079767;28;20035;-67
2023/09/21 00:12:36;;;;;;;5.22;1.80;;;;;;;;;;5079900;28;21042;-66
2023/09/21 00:15:05;;;;;;;6.15;2.15;;;;;;;;;;5079477;28;20024;-66
2023/09/21 00:17:32;;;;;;;7.00;2.22;;;;;;;;;;5080802;28;20028;-66
2023/09/21 00:19:59;;;;;;;4.22;1.60;;;;;;;;;;5079811;28;20452;-66
2023/09/21 00:22:28;;;;;;;5.28;1.60;;;;;;;;;;5080888;28;20077;-66
2023/09/21 00:24:54;;;;;;;4.82;2.17;;;;;;;;;;5080377;28;20044;-66
2023/09/21 00:27:21;;;;;;;4.28;1.45;;;;;;;;;;5080852;28;20028;-67
2023/09/21 00:29:49;;;;;;;7.10;1.90;;;;;;;;;;5080773;28;20168;-67
2023/09/21 00:32:15;;;;;;;5.18;1.80;;;;;;;;;;5080697;28;20147;-66
2023/09/21 00:34:41;;;;;;;5.82;1.42;;;;;;;;;;5081265;28;20039;-66
2023/09/21 00:37:07;;;;;;;5.82;2.03;;;;;;;;;;5081050;28;20803;-66
2023/09/21 00:39:34;;;;;;;7.43;1.88;;;;;;;;;;5080480;28;20035;-66
2023/09/21 00:42:00;;;;;;;5.47;1.60;;;;;;;;;;5060960;28;20081;-66
2023/09/21 00:44:26;;;;;;;4.88;1.70;;;;;;;;;;5081085;28;20032;-66
2023/09/21 00:46:53;;;;;;;4.03;1.67;;;;;;;;;;5079735;28;20516;-66
2023/09/21 00:49:19;;;;;;;3.95;1.67;;;;;;;;;;5080605;28;20035;-66
2023/09/21 00:51:45;;;;;;;4.45;1.60;;;;;;;;;;5080240;28;20101;-66
2023/09/21 00:54:12;;;;;;;3.67;1.40;;;;;;;;;;5080620;28;20666;-67
2023/09/21 00:56:39;;;;;;;4.50;1.63;;;;;;;;;;5080170;28;21222;-66
2023/09/21 00:59:06;;;;;;;5.53;1.90;;;;;;;;;;5081123;28;20020;-66
2023/09/21 01:01:33;;;;;;;4.10;1.45;;;;;;;;;;5083382;28;21853;-66
2023/09/21 01:04:06;;;;;;;6.65;2.08;;;;;;;;;;5083970;28;20046;-66
2023/09/21 01:06:33;;;;;;;3.97;1.75;;;;;;;;;;5084031;28;20028;-66
2023/09/21 01:09:00;;;;;;;3.58;1.63;;;;;;;;;;5084429;28;20028;-66
2023/09/21 01:11:26;;;;;;;4.53;1.65;;;;;;;;;;5084111;28;20032;-66
2023/09/21 01:13:52;;;;;;;5.25;1.42;;;;;;;;;;5083584;27;20086;-66
2023/09/21 01:16:24;;;;;;;4.57;1.60;;;;;;;;;;5083993;28;20035;-66
2023/09/21 01:18:52;;;;;;;5.28;1.70;;;;;;;;;;5083918;28;20031;-66
2023/09/21 01:21:22;;;;;;;5.85;1.73;;;;;;;;;;5083087;28;20036;-66
2023/09/21 01:23:49;;;;;;;5.88;1.92;;;;;;;;;;5083731;27;20535;-66
2023/09/21 01:26:16;;;;;;;6.30;2.03;;;;;;;;;;5083963;28;20020;-66
2023/09/21 01:28:46;;;;;;;5.40;1.80;;;;;;;;;;5083060;27;20027;-66
2023/09/21 01:31:15;;;;;;;5.75;1.55;;;;;;;;;;5083455;28;20062;-67
2023/09/21 01:33:42;;;;;;;5.70;2.00;;;;;;;;;;5083478;28;20026;-66
2023/09/21 01:36:09;;;;;;;4.03;1.65;;;;;;;;;;5082907;28;20041;-66
2023/09/21 01:38:37;;;;;;;6.55;2.00;;;;;;;;;;5083963;28;20423;-66
2023/09/21 01:41:06;;;;;;;6.47;1.73;;;;;;;;;;5083509;28;20141;-66
2023/09/21 01:43:33;;;;;;;4.38;1.48;;;;;;;;;;5083118;28;20026;-67
2023/09/21 01:45:59;;;;;;;6.00;1.80;;;;;;;;;;5083544;28;20024;-66
2023/09/21 01:48:27;;;;;;;6.32;1.92;;;;;;;;;;5082605;28;20119;-66
2023/09/21 01:50:57;;;;;;;5.55;1.88;;;;;;;;;;5082960;28;20052;-66
2023/09/21 01:53:23;;;;;;;4.68;1.85;;;;;;;;;;5083265;28;20682;-66
2023/09/21 01:55:50;;;;;;;4.82;1.80;;;;;;;;;;5083091;28;20039;-66
2023/09/21 01:58:16;;;;;;;4.50;1.90;;;;;;;;;;5083316;27;20028;-66
2023/09/21 02:00:43;;;;;;;6.53;1.88;;;;;;;;;;5082735;28;20020;-66
2023/09/21 02:03:12;;;;;;;5.40;2.10;;;;;;;;;;5082913;28;20123;-66
2023/09/21 02:05:39;;;;;;;7.15;2.30;;;;;;;;;;5082978;27;20070;-67
2023/09/21 02:08:05;;;;;;;6.05;2.20;;;;;;;;;;5063373;28;20051;-66
2023/09/21 02:10:32;;;;;;;6.93;2.45;;;;;;;;;;5082649;28;20024;-66
2023/09/21 02:13:00;;;;;;;8.35;2.40;;;;;;;;;;5082573;28;20020;-66
2023/09/21 02:15:26;;;;;;;5.35;2.38;;;;;;;;;;5062768;28;21804;-66
2023/09/21 02:17:55;;;;;;;5.22;1.70;;;;;;;;;;5082916;28;20041;-66
2023/09/21 02:20:22;;;;;;;6.43;2.08;;;;;;;;;;5082343;27;20039;-66
2023/09/21 02:22:48;;;;;;;4.68;1.70;;;;;;;;;;5080836;28;21153;-67
2023/09/21 02:25:15;;;;;;;6.40;2.15;;;;;;;;;;5081278;28;20040;-66
2023/09/21 02:27:41;;;;;;;4.50;1.80;;;;;;;;;;5082623;28;20026;-66
2023/09/21 02:30:11;;;;;;;5.72;2.30;;;;;;;;;;5081416;28;20032;-66
2023/09/21 02:32:38;;;;;;;11.52;2.67;;;;;;;;;;5081397;28;20031;-66
2023/09/21 02:35:07;;;;;;;4.85;2.15;;;;;;;;;;5081270;28;20035;-66
2023/09/21 02:37:34;;;;;;;5.68;1.83;;;;;;;;;;5082907;28;20028;-66
2023/09/21 02:40:01;;;;;;;3.60;1.90;;;;;;;;;;5082352;28;20075;-66
2023/09/21 02:42:28;;;;;;;8.05;1.95;;;;;;;;;;5062479;28;20039;-66
2023/09/21 02:44:55;;;;;;;4.72;1.77;;;;;;;;;;5082155;28;21882;-66
2023/09/21 02:47:23;;;;;;;4.75;1.80;;;;;;;;;;5082302;28;21004;-66
2023/09/21 02:49:50;;;;;;;5.38;1.70;;;;;;;;;;5081084;28;20047;-66
2023/09/21 02:52:16;;;;;;;4.32;1.75;;;;;;;;;;5082394;28;20044;-66
2023/09/21 02:54:42;;;;;;;6.07;1.98;;;;;;;;;;5081245;28;20752;-66
2023/09/21 02:57:09;;;;;;;6.03;1.80;;;;;;;;;;5081930;28;21123;-66
2023/09/21 02:59:35;;;;;;;5.03;1.92;;;;;;;;;;5082011;28;20082;-66
2023/09/21 03:02:01;;;;;;;4.55;1.48;;;;;;;;;;5082169;28;20027;-67
2023/09/21 03:04:27;;;;;;;4.80;1.67;;;;;;;;;;5081052;28;20020;-66
2023/09/21 03:06:55;;;;;;;3.55;1.48;;;;;;;;;;5082213;28;20059;-66
2023/09/21 03:09:22;;;;;;;4.07;1.52;;;;;;;;;;5080684;28;20118;-66
2023/09/21 03:11:48;;;;;;;4.43;1.60;;;;;;;;;;5082036;28;20501;-66
2023/09/21 03:14:15;;;;;;;5.18;1.63;;;;;;;;;;5081267;27;20023;-67
2023/09/21 03:16:44;;;;;;;8.48;2.00;;;;;;;;;;5081094;28;20210;-66
2023/09/21 03:19:11;;;;;;;4.20;1.60;;;;;;;;;;5081037;28;20036;-66
2023/09/21 03:21:37;;;;;;;4.38;1.60;;;;;;;;;;5081320;28;21800;-66
2023/09/21 03:24:04;;;;;;;6.78;1.83;;;;;;;;;;5079746;28;20028;-66
2023/09/21 03:26:30;;;;;;;6.05;1.75;;;;;;;;;;5081454;28;20035;-67
2023/09/21 03:28:56;;;;;;;4.07;1.63;;;;;;;;;;5081004;28;20032;-66
2023/09/21 03:31:22;;;;;;;3.95;1.58;;;;;;;;;;5061426;28;20023;-67
2023/09/21 03:33:49;;;;;;;4.47;1.70;;;;;;;;;;5080531;28;20051;-67
2023/09/21 03:36:16;;;;;;;8.02;2.33;;;;;;;;;;5081209;28;20020;-66
2023/09/21 03:38:43;;;;;;;4.47;1.95;;;;;;;;;;5080921;28;20072;-66
2023/09/21 03:41:10;;;;;;;5.28;2.10;;;;;;;;;;5080420;28;20060;-67
2023/09/21 03:43:36;;;;;;;4.78;2.03;;;;;;;;;;5080614;27;20042;-66
2023/09/21 03:46:02;;;;;;;4.78;1.73;;;;;;;;;;5080966;28;20028;-69
2023/09/21 03:48:35;;;;;;;6.80;2.03;;;;;;;;;;5081331;28;20103;-67
2023/09/21 03:51:04;;;;;;;4.95;1.80;;;;;;;;;;5079988;28;20522;-66
2023/09/21 03:53:33;;;;;;;5.55;1.98;;;;;;;;;;5081359;28;20032;-66
2023/09/21 03:56:01;;;;;;;5.03;1.80;;;;;;;;;;5080653;27;20040;-66
2023/09/21 03:58:28;;;;;;;4.47;1.80;;;;;;;;;;5080855;28;20032;-66
2023/09/21 04:00:54;;;;;;;12.48;2.70;;;;;;;;;;5080913;28;20089;-66
2023/09/21 04:03:20;;;;;;;6.65;2.13;;;;;;;;;;5081170;28;20032;-67
2023/09/21 04:05:47;;;;;;;5.40;1.55;;;;;;;;;;5081115;28;20031;-66
2023/09/21 04:08:13;;;;;;;6.72;1.80;;;;;;;;;;5081360;28;20066;-66
2023/09/21 04:10:40;;;;;;;5.30;1.85;;;;;;;;;;5080489;28;21693;-66
2023/09/21 04:13:06;;;;;;;4.63;1.67;;;;;;;;;;5081052;28;20051;-67
2023/09/21 04:15:32;;;;;;;5.15;2.00;;;;;;;;;;5080699;28;20795;-66
2023/09/21 04:17:59;;;;;;;5.05;1.90;;;;;;;;;;5081027;28;20112;-66
2023/09/21 04:20:25;;;;;;;6.25;1.70;;;;;;;;;;5080966;28;20112;-66
2023/09/21 04:22:53;;;;;;;5.07;1.85;;;;;;;;;;5081354;28;20051;-66
2023/09/21 04:25:19;;;;;;;6.20;2.03;;;;;;;;;;5065621;28;20028;-66
2023/09/21 04:27:47;;;;;;;5.50;2.00;;;;;;;;;;5079972;28;20042;-66
2023/09/21 04:30:14;;;;;;;7.32;1.83;;;;;;;;;;5080094;28;20031;-66
2023/09/21 04:32:47;;;;;;;5.10;2.15;;;;;;;;;;5080366;28;20031;-66
2023/09/21 04:35:13;;;;;;;8.45;1.92;;;;;;;;;;5083258;28;20111;-66
2023/09/21 04:37:39;;;;;;;4.55;1.80;;;;;;;;;;5085153;28;20032;-66
2023/09/21 04:40:10;;;;;;;3.35;1.63;;;;;;;;;;5082972;28;20066;-66
2023/09/21 04:42:39;;;;;;;5.30;1.75;;;;;;;;;;5083754;28;20529;-67
2023/09/21 04:45:09;;;;;;;5.60;1.77;;;;;;;;;;5082736;28;20028;-66
2023/09/21 04:47:38;;;;;;;5.97;2.03;;;;;;;;;;5083130;27;20143;-66
2023/09/21 04:50:05;;;;;;;4.60;2.00;;;;;;;;;;5083850;27;20466;-66
2023/09/21 04:52:34;;;;;;;3.55;1.73;;;;;;;;;;5083763;27;20093;-66
2023/09/21 04:55:00;;;;;;;4.50;1.80;;;;;;;;;;5084367;28;20111;-66
2023/09/21 04:57:30;;;;;;;8.85;1.90;;;;;;;;;;5084093;28;20040;-66
2023/09/21 04:59:57;;;;;;;4.03;1.75;;;;;;;;;;5082976;28;20139;-67
2023/09/21 05:02:23;;;;;;;4.72;1.77;;;;;;;;;;5074368;28;20043;-66
2023/09/21 05:04:50;;;;;;;5.75;2.00;;;;;;;;;;5084135;28;20154;-66
2023/09/21 05:07:17;;;;;;;3.97;1.80;;;;;;;;;;5083493;28;20748;-66
2023/09/21 05:09:43;;;;;;;5.28;1.52;;;;;;;;;;5084466;28;20732;-66
2023/09/21 05:12:09;;;;;;;4.32;1.80;;;;;;;;;;5084652;28;20619;-66
2023/09/21 05:14:35;;;;;;;4.30;1.58;;;;;;;;;;5084155;28;20533;-67
2023/09/21 05:17:04;;;;;;;7.28;1.67;;;;;;;;;;5084556;28;20051;-66
2023/09/21 05:19:31;;;;;;;5.28;1.98;;;;;;;;;;5084258;28;20056;-66
2023/09/21 05:21:57;;;;;;;5.47;2.25;;;;;;;;;;5083826;28;20051;-66
2023/09/21 05:24:25;;;;;;;3.30;1.52;;;;;;;;;;5081468;28;20102;-66
2023/09/21 05:26:52;;;;;;;4.43;1.73;;;;;;;;;;5084042;28;20042;-66
2023/09/21 05:29:19;;;;;;;5.45;1.98;;;;;;;;;;5083486;28;20080;-67
2023/09/21 05:31:45;;;;;;;8.18;1.70;;;;;;;;;;5083816;27;20877;-66
2023/09/21 05:34:11;;;;;;;4.38;1.90;;;;;;;;;;5083220;28;20996;-66
2023/09/21 05:36:37;;;;;;;5.57;1.60;;;;;;;;;;5082798;28;20032;-66
2023/09/21 05:39:04;;;;;;;4.22;1.80;;;;;;;;;;5083073;28;20042;-65
2023/09/21 05:41:31;;;;;;;7.10;1.90;;;;;;;;;;5083097;27;20688;-67
2023/09/21 05:43:57;;;;;;;4.75;1.70;;;;;;;;;;5083132;28;20032;-66
2023/09/21 05:46:23;;;;;;;4.50;1.60;;;;;;;;;;5082550;28;20035;-67
2023/09/21 05:48:50;;;;;;;3.72;1.63;;;;;;;;;;5083088;28;20032;-66
2023/09/21 05:51:16;;;;;;;5.43;1.80;;;;;;;;;;5082636;28;20048;-66
2023/09/21 05:53:43;;;;;;;3.75;1.60;;;;;;;;;;5083601;28;20028;-66
2023/09/21 05:56:11;;;;;;;8.10;1.90;;;;;;;;;;5082770;27;20032;-66
2023/09/21 05:58:37;;;;;;;4.82;2.03;;;;;;;;;;5082272;28;20812;-66
2023/09/21 06:01:03;;;;;;;7.32;1.90;;;;;;;;;;5082880;28;20174;-66
2023/09/21 06:03:30;;;;;;;5.43;1.77;;;;;;;;;;5081811;27;20477;-66
2023/09/21 06:05:56;;;;;;;5.55;1.80;;;;;;;;;;5083059;28;20460;-66
2023/09/21 06:08:22;;;;;;;4.40;2.10;;;;;;;;;;5082893;28;20797;-66
2023/09/21 06:10:48;;;;;;;5.25;1.50;;;;;;;;;;5082743;28;20040;-66
2023/09/21 06:13:15;;;;;;;5.40;1.95;;;;;;;;;;5082506;28;20034;-66
2023/09/21 06:15:47;;;;;;;3.70;1.60;;;;;;;;;;5066219;28;20035;-66
2023/09/21 06:18:17;;;;;;;7.40;1.92;;;;;;;;;;5082284;27;20634;-66
2023/09/21 06:20:43;;;;;;;4.70;2.00;;;;;;;;;;5063207;28;20040;-66
2023/09/21 06:23:09;;;;;;;5.38;1.70;;;;;;;;;;5082525;28;20101;-66
2023/09/21 06:25:36;;;;;;;7.18;1.90;;;;;;;;;;5082926;28;20032;-66
2023/09/21 06:28:05;;;;;;;6.40;2.00;;;;;;;;;;5082537;28;20039;-67
2023/09/21 06:30:32;;;;;;;4.47;1.80;;;;;;;;;;5082135;28;20024;-67
2023/09/21 06:33:00;;;;;;;7.40;2.10;;;;;;;;;;5078850;28;20035;-66
2023/09/21 06:35:27;;;;;;;4.75;1.70;;;;;;;;;;5080695;28;20085;-66
2023/09/21 06:37:54;;;;;;;5.15;1.83;;;;;;;;;;5081746;28;20034;-66
2023/09/21 06:40:21;;;;;;;4.18;1.80;;;;;;;;;;5080877;28;20031;-66
2023/09/21 06:42:47;;;;;;;6.05;2.15;;;;;;;;;;5081377;28;20043;-66
2023/09/21 06:45:13;;;;;;;6.35;2.25;;;;;;;;;;5081641;28;20069;-66
2023/09/21 06:47:39;;;;;;;6.70;1.95;;;;;;;;;;5081255;28;20539;-66
2023/09/21 06:50:07;;;;;;;3.90;1.75;;;;;;;;;;5080613;28;20031;-66
2023/09/21 06:52:33;;;;;;;6.72;1.75;;;;;;;;;;5081137;28;20052;-66
2023/09/21 06:55:00;;;;;;;4.30;1.63;;;;;;;;;;5081424;28;20081;-66
2023/09/21 06:57:28;;;;;;;7.95;2.08;;;;;;;;;;5080892;28;20040;-66
2023/09/21 06:59:54;;;;;;;7.03;1.80;;;;;;;;;;5081269;28;20383;-66
2023/09/21 07:02:24;;;;;;;7.13;2.17;;;;;;;;;;5081323;27;20032;-66
2023/09/21 07:04:50;;;;;;;8.88;2.00;;;;;;;;;;5081269;28;20460;-66
2023/09/21 07:07:16;;;;;;;5.05;2.00;;;;;;;;;;5081733;28;20111;-66
2023/09/21 07:09:44;;;;;;;4.50;1.88;;;;;;;;;;5080361;28;21014;-66
2023/09/21 07:12:12;;;;;;;6.20;2.03;;;;;;;;;;5080958;28;20031;-66
2023/09/21 07:14:38;;;;;;;4.65;1.85;;;;;;;;;;5080272;28;20039;-67
2023/09/21 07:17:08;;;;;;;6.53;2.30;;;;;;;;;;5079187;28;20024;-66
2023/09/21 07:19:37;;;;;;;4.88;1.90;;;;;;;;;;5080342;28;20040;-66
2023/09/21 07:22:03;;;;;;;4.90;1.88;;;;;;;;;;5062101;28;20364;-66
2023/09/21 07:24:30;;;;;;;6.72;2.30;;;;;;;;;;5079347;28;20039;-66
2023/09/21 07:26:56;;;;;;;7.20;2.22;;;;;;;;;;5080638;28;20047;-66
2023/09/21 07:29:23;;;;;;;4.85;2.00;;;;;;;;;;5061669;28;20119;-66
2023/09/21 07:31:50;;;;;;;7.25;2.20;;;;;;;;;;5080821;28;20036;-66
2023/09/21 07:34:16;;;;;;;6.38;1.75;;;;;;;;;;5081436;28;20036;-67
2023/09/21 07:36:46;;;;;;;4.85;2.20;;;;;;;;;;5080425;27;21997;-67
2023/09/21 07:39:16;;;;;;;5.28;2.10;;;;;;;;;;5080951;28;20110;-66
2023/09/21 07:41:42;;;;;;;6.32;2.60;;;;;;;;;;5080751;28;20032;-67
2023/09/21 07:44:11;;;;;;;5.93;2.22;;;;;;;;;;5080307;28;20032;-67
2023/09/21 07:46:38;;;;;;;5.03;2.08;;;;;;;;;;5080160;28;20032;-67
2023/09/21 07:49:07;;;;;;;6.97;2.53;;;;;;;;;;5080912;28;20035;-67
2023/09/21 07:51:34;;;;;;;5.22;2.38;;;;;;;;;;5080101;28;21066;-67
2023/09/21 07:54:03;;;;;;;5.10;1.92;;;;;;;;;;5080258;28;20024;-67
2023/09/21 07:56:32;;;;;;;4.75;2.00;;;;;;;;;;5064301;28;20125;-66
2023/09/21 07:58:59;;;;;;;8.35;2.15;;;;;;;;;;5077436;28;20068;-66
2023/09/21 08:01:26;;;;;;;4.57;2.30;;;;;;;;;;5079721;28;20027;-66
2023/09/21 08:03:54;;;;;;;6.57;1.98;;;;;;;;;;5080234;28;21009;-66
2023/09/21 08:06:20;;;;;;;5.45;2.55;;;;;;;;;;5070068;28;20019;-67
2023/09/21 08:08:52;;;;;;;3.88;2.08;;;;;;;;;;5080485;28;20027;-67
2023/09/21 08:11:18;;;;;;;6.45;2.75;;;;;;;;;;5080107;28;20024;-67
2023/09/21 08:13:44;;;;;;;7.13;2.47;;;;;;;;;;5079631;28;20039;-67
2023/09/21 08:16:10;;;;;;;5.32;2.20;;;;;;;;;;5080497;28;20035;-67
2023/09/21 08:18:36;;;;;;;5.10;2.00;;;;;;;;;;5079832;28;20679;-66
2023/09/21 08:21:05;;;;;;;5.57;2.10;;;;;;;;;;5080720;28;20102;-67
2023/09/21 08:23:32;;;;;;;5.25;2.30;;;;;;;;;;5080040;28;20028;-66
2023/09/21 08:25:58;;;;;;;7.35;2.38;;;;;;;;;;5080742;28;20032;-67
2023/09/21 08:28:24;;;;;;;8.50;2.70;;;;;;;;;;5080636;28;20136;-68
2023/09/21 08:30:51;;;;;;;5.47;2.25;;;;;;;;;;5079286;28;20467;-67
2023/09/21 08:33:17;;;;;;;6.60;2.65;;;;;;;;;;5080101;28;20223;-67
2023/09/21 08:35:43;;;;;;;6.40;2.15;;;;;;;;;;5080434;28;20051;-68
2023/09/21 08:38:10;;;;;;;6.45;2.70;;;;;;;;;;5080129;28;20035;-67
2023/09/21 08:40:37;;;;;;;6.65;2.42;;;;;;;;;;5079904;28;20073;-67
2023/09/21 08:43:04;;;;;;;7.70;2.53;;;;;;;;;;5080919;28;20027;-67
2023/09/21 08:45:33;;;;;;;5.53;2.78;;;;;;;;;;5080421;28;21842;-67
2023/09/21 08:48:02;;;;;;;7.15;2.80;;;;;;;;;;5080222;28;20133;-67
2023/09/21 08:50:29;;;;;;;10.50;1.95;;;;;;;;;;5080562;28;20117;-68
2023/09/21 08:52:55;;;;;;;3.33;1.40;;;;;;;;;;5079931;28;20550;-67
2023/09/21 08:55:22;;;;;;;2.58;1.17;;;;;;;;;;5080732;28;20120;-68
2023/09/21 08:57:48;;;;;;;0.93;0.50;;;;;;;;;;5080822;28;20394;-68
2023/09/21 09:00:15;;;;;;;2.83;0.73;;;;;;;;;;5079953;28;20030;-68
2023/09/21 09:02:42;;;;;;;2.95;1.02;;;;;;;;;;5080509;28;20814;-68
2023/09/21 09:05:09;;;;;;;1.40;0.55;;;;;;;;;;5080545;28;20028;-68
2023/09/21 09:07:41;;;;;;;1.63;0.57;;;;;;;;;;5080498;28;20028;-68
2023/09/21 09:10:09;;;;;;;2.67;0.90;;;;;;;;;;5080692;28;20112;-68
2023/09/21 09:12:35;;;;;;;2.17;0.90;;;;;;;;;;5079906;28;20030;-68
2023/09/21 09:15:03;;;;;;;2.20;0.68;;;;;;;;;;5080272;28;20476;-68
2023/09/21 09:17:33;;;;;;;2.85;0.90;;;;;;;;;;5079152;28;20060;-67
2023/09/21 09:20:03;;;;;;;2.10;0.70;;;;;;;;;;5079518;28;20024;-67
2023/09/21 09:22:34;;;;;;;1.00;0.60;;;;;;;;;;5082710;28;20032;-67
2023/09/21 09:25:04;;;;;;;2.28;1.05;;;;;;;;;;5083845;28;20995;-67
2023/09/21 09:27:31;;;;;;;2.30;0.75;;;;;;;;;;5082992;28;20058;-67
2023/09/21 09:29:57;;;;;;;1.58;0.65;;;;;;;;;;5083336;28;20042;-66
2023/09/21 09:32:24;;;;;;;2.67;0.80;;;;;;;;;;5082488;28;20028;-67
2023/09/21 09:34:50;;;;;;;2.97;0.98;;;;;;;;;;5080969;28;20020;-67
2023/09/21 09:37:17;;;;;;;3.67;1.00;;;;;;;;;;5062666;28;20719;-66
2023/09/21 09:39:43;;;;;;;2.80;1.00;;;;;;;;;;5066778;28;20035;-67
2023/09/21 09:42:11;;;;;;;4.07;1.00;;;;;;;;;;5082041;28;20508;-67
2023/09/21 09:44:42;;;;;;;2.75;0.82;;;;;;;;;;5083826;28;20046;-66
2023/09/21 09:47:10;;;;;;;3.38;1.10;;;;;;;;;;5083995;28;20039;-66
2023/09/21 09:49:40;;;;;;;2.53;1.00;;;;;;;;;;5083161;28;20115;-67
2023/09/21 09:52:09;;;;;;;3.28;1.00;;;;;;;;;;5063258;28;20036;-67
2023/09/21 09:54:36;;;;;;;3.03;0.88;;;;;;;;;;5083175;28;20166;-67
2023/09/21 09:57:04;;;;;;;2.25;0.90;;;;;;;;;;5082612;28;20028;-67
2023/09/21 09:59:31;;;;;;;3.67;0.98;;;;;;;;;;5083237;28;20040;-67
2023/09/21 10:01:58;;;;;;;1.55;0.70;;;;;;;;;;5083246;28;20036;-66
2023/09/21 10:04:33;;;;;;;2.72;1.00;;;;;;;;;;5082666;28;20123;-67
2023/09/21 10:06:59;;;;;;;2.58;0.85;;;;;;;;;;5083173;28;20028;-67
2023/09/21 10:09:27;;;;;;;4.32;1.20;;;;;;;;;;5082751;28;20691;-66
2023/09/21 10:11:54;;;;;;;4.80;1.30;;;;;;;;;;5081701;28;20103;-67
2023/09/21 10:14:21;;;;;;;2.55;0.90;;;;;;;;;;5082886;28;21683;-67
2023/09/21 10:16:57;;;;;;;2.92;1.00;;;;;;;;;;5082733;28;20562;-66
2023/09/21 10:19:29;;;;;;;2.35;0.90;;;;;;;;;;5082213;28;20487;-67
2023/09/21 10:22:03;;;;;;;2.80;0.90;;;;;;;;;;5082337;28;20027;-67
2023/09/21 10:24:30;;;;;;;2.72;0.77;;;;;;;;;;5082792;28;21862;-66
2023/09/21 10:27:03;;;;;;;2.78;0.77;;;;;;;;;;5082187;28;20031;-66
2023/09/21 10:29:40;;;;;;;2.22;0.80;;;;;;;;;;5080991;28;20023;-67
2023/09/21 10:32:07;;;;;;;1.33;0.40;;;;;;;;;;5081730;28;20039;-67
2023/09/21 10:34:33;;;;;;;1.40;0.60;;;;;;;;;;5072103;28;20047;-66
2023/09/21 10:37:06;;;;;;;1.60;0.77;;;;;;;;;;5082411;28;20039;-67
2023/09/21 10:39:33;;;;;;;2.08;0.75;;;;;;;;;;5082396;28;20118;-66
2023/09/21 10:42:02;;;;;;;2.38;0.90;;;;;;;;;;5082382;28;20031;-66
2023/09/21 10:44:46;;;;;;;2.38;0.90;;;;;;;;;;5082538;28;20036;-66
2023/09/21 10:47:12;;;;;;;2.60;0.70;;;;;;;;;;5082108;28;20794;-67
2023/09/21 10:49:38;;;;;;;1.70;0.70;;;;;;;;;;5082318;28;20234;-66
2023/09/21 10:52:09;;;;;;;3.45;0.98;;;;;;;;;;5080711;28;20142;-67
2023/09/21 10:54:36;;;;;;;1.80;0.68;;;;;;;;;;5081316;28;20040;-67
2023/09/21 10:57:03;;;;;;;1.45;0.60;;;;;;;;;;5062126;28;20093;-67
2023/09/21 10:59:30;;;;;;;1.83;0.70;;;;;;;;;;5082015;28;21067;-67
2023/09/21 11:01:56;;;;;;;1.52;0.65;;;;;;;;;;5080446;28;20032;-67
2023/09/21 11:04:23;;;;;;;3.00;0.90;;;;;;;;;;5082130;28;20033;-67
2023/09/21 11:06:49;;;;;;;2.00;0.77;;;;;;;;;;5081800;28;20023;-67
2023/09/21 11:09:17;;;;;;;1.70;0.65;;;;;;;;;;5080749;28;20100;-67
2023/09/21 11:11:44;;;;;;;2.05;0.80;;;;;;;;;;5081657;28;20031;-67
2023/09/21 11:14:10;;;;;;;2.78;1.13;;;;;;;;;;5081876;28;20028;-67
2023/09/21 11:16:36;;;;;;;1.40;0.60;;;;;;;;;;5081219;28;20065;-66
2023/09/21 11:19:05;;;;;;;1.73;0.73;;;;;;;;;;5081642;28;20045;-67
2023/09/21 11:21:31;;;;;;;2.35;0.90;;;;;;;;;;5081753;28;21022;-67
2023/09/21 11:23:58;;;;;;;2.28;0.68;;;;;;;;;;5081403;28;20073;-67
2023/09/21 11:26:27;;;;;;;2.28;0.60;;;;;;;;;;5081648;28;20024;-67
2023/09/21 11:28:59;;;;;;;1.17;0.63;;;;;;;;;;5081623;28;20069;-67
2023/09/21 11:31:28;;;;;;;1.80;0.68;;;;;;;;;;5061671;28;20442;-67
2023/09/21 11:33:54;;;;;;;5.85;0.90;;;;;;;;;;5081429;28;21409;-67
2023/09/21 11:36:21;;;;;;;1.80;0.60;;;;;;;;;;5081982;28;20028;-67
2023/09/21 11:38:50;;;;;;;2.20;0.80;;;;;;;;;;5081378;28;20067;-66
2023/09/21 11:41:16;;;;;;;2.38;0.80;;;;;;;;;;5081244;28;20150;-66
2023/09/21 11:43:42;;;;;;;2.00;0.68;;;;;;;;;;5080062;28;20047;-67
2023/09/21 11:46:08;;;;;;;2.63;0.88;;;;;;;;;;5078679;28;20123;-66
2023/09/21 11:48:38;;;;;;;1.45;0.75;;;;;;;;;;5075830;28;20020;-67
2023/09/21 11:51:04;;;;;;;1.02;0.60;;;;;;;;;;5080194;28;20070;-66
2023/09/21 11:53:31;;;;;;;1.98;1.08;;;;;;;;;;5079208;28;20044;-66
2023/09/21 11:55:57;;;;;;;3.92;1.00;;;;;;;;;;5079944;28;20027;-66
2023/09/21 11:58:23;;;;;;;1.13;0.55;;;;;;;;;;5080973;28;20549;-66
2023/09/21 12:03:33;;;;;;;2.13;0.85;;;;;;;;;;5080929;28;20039;-67
2023/09/21 12:06:04;;;;;;;2.42;0.85;;;;;;;;;;5080347;28;20122;-67
2023/09/21 12:08:31;;;;;;;1.23;0.50;;;;;;;;;;5080649;28;20032;-66
2023/09/21 12:10:57;;;;;;;2.65;0.80;;;;;;;;;;5070669;28;20122;-66
2023/09/21 12:13:24;;;;;;;2.15;0.82;;;;;;;;;;5080377;28;20043;-66
2023/09/21 12:15:55;;;;;;;1.45;0.70;;;;;;;;;;5080632;28;20045;-66
2023/09/21 12:18:22;;;;;;;4.88;1.20;;;;;;;;;;5080881;28;20031;-66
2023/09/21 12:20:57;;;;;;;2.60;1.05;;;;;;;;;;5080117;28;20031;-66
2023/09/21 12:23:24;;;;;;;3.25;1.27;;;;;;;;;;5080682;28;20119;-67
2023/09/21 12:25:51;;;;;;;3.30;1.20;;;;;;;;;;5081191;28;20428;-66
2023/09/21 12:28:19;;;;;;;2.45;1.00;;;;;;;;;;5070411;28;20697;-66
2023/09/21 12:30:48;;;;;;;2.95;1.23;;;;;;;;;;5080636;28;20023;-66
2023/09/21 12:33:15;;;;;;;3.25;1.05;;;;;;;;;;5080607;28;20027;-66
2023/09/21 12:35:44;;;;;;;3.35;0.95;;;;;;;;;;5080076;28;20528;-66
2023/09/21 12:38:11;;;;;;;1.98;0.70;;;;;;;;;;5080635;28;20063;-66
2023/09/21 12:40:37;;;;;;;3.83;1.00;;;;;;;;;;5079981;28;20498;-67
2023/09/21 12:43:05;;;;;;;1.30;0.73;;;;;;;;;;5079088;28;20918;-66
2023/09/21 12:45:34;;;;;;;2.22;0.70;;;;;;;;;;5080972;28;20040;-66
2023/09/21 12:48:01;;;;;;;4.00;0.90;;;;;;;;;;5080535;28;20031;-66
2023/09/21 12:50:28;;;;;;;2.90;1.00;;;;;;;;;;5079387;28;20032;-66
2023/09/21 12:52:55;;;;;;;1.85;0.70;;;;;;;;;;5080684;28;20048;-67
2023/09/21 12:55:21;;;;;;;1.15;0.60;;;;;;;;;;5064867;28;20767;-67
2023/09/21 12:57:47;;;;;;;3.28;1.05;;;;;;;;;;5083591;28;20047;-67
2023/09/21 13:00:14;;;;;;;1.77;0.90;;;;;;;;;;5084356;28;20032;-67
2023/09/21 13:02:40;;;;;;;2.45;0.88;;;;;;;;;;5084695;28;20046;-67
2023/09/21 13:05:08;;;;;;;5.85;1.10;;;;;;;;;;5082637;28;20040;-66
2023/09/21 13:07:35;;;;;;;2.65;0.60;;;;;;;;;;5083971;28;20200;-66
2023/09/21 13:10:01;;;;;;;2.20;0.73;;;;;;;;;;5083117;28;20032;-67
2023/09/21 13:12:27;;;;;;;2.65;0.88;;;;;;;;;;5083058;28;20029;-66
2023/09/21 13:14:53;;;;;;;1.85;0.85;;;;;;;;;;5083610;28;20039;-67
2023/09/21 13:17:21;;;;;;;2.65;0.95;;;;;;;;;;5082792;28;21112;-67
2023/09/21 13:19:48;;;;;;;2.25;0.80;;;;;;;;;;5082847;28;20024;-67
2023/09/21 13:22:15;;;;;;;1.98;0.80;;;;;;;;;;5083870;28;20313;-67
2023/09/21 13:24:41;;;;;;;1.13;0.75;;;;;;;;;;5083354;28;20032;-66
2023/09/21 13:27:08;;;;;;;1.48;0.75;;;;;;;;;;5083504;28;20028;-67
2023/09/21 13:29:35;;;;;;;1.33;0.70;;;;;;;;;;5082862;28;20034;-67
2023/09/21 13:32:01;;;;;;;2.05;0.70;;;;;;;;;;5083248;28;20020;-67
2023/09/21 13:34:28;;;;;;;1.42;0.85;;;;;;;;;;5062941;28;20028;-67
2023/09/21 13:36:54;;;;;;;1.92;0.75;;;;;;;;;;5083663;28;20114;-66
2023/09/21 13:39:21;;;;;;;2.53;0.70;;;;;;;;;;5083725;28;20050;-67
2023/09/21 13:41:53;;;;;;;2.10;0.75;;;;;;;;;;5083560;28;20875;-66
2023/09/21 13:44:19;;;;;;;1.88;0.68;;;;;;;;;;5083239;28;20056;-67
2023/09/21 13:46:45;;;;;;;1.40;0.60;;;;;;;;;;5082468;28;20199;-66
2023/09/21 13:49:11;;;;;;;3.90;0.95;;;;;;;;;;5083385;28;20935;-67
2023/09/21 13:51:38;;;;;;;2.10;0.60;;;;;;;;;;5083254;28;20479;-66
2023/09/21 13:54:05;;;;;;;2.08;0.75;;;;;;;;;;5082508;28;20294;-67
2023/09/21 13:56:31;;;;;;;2.08;0.75;;;;;;;;;;5083287;28;21000;-66
2023/09/21 13:58:57;;;;;;;2.47;0.70;;;;;;;;;;5083158;28;20086;-67
2023/09/21 14:01:25;;;;;;;3.05;0.60;;;;;;;;;;5081955;28;20111;-66
2023/09/21 14:03:51;;;;;;;1.38;0.63;;;;;;;;;;5081650;28;20109;-67
2023/09/21 14:06:19;;;;;;;1.25;0.60;;;;;;;;;;5082776;28;20061;-67
2023/09/21 14:08:45;;;;;;;1.65;0.70;;;;;;;;;;5081403;28;20035;-66
2023/09/21 14:11:11;;;;;;;1.92;0.60;;;;;;;;;;5082353;28;20031;-66
2023/09/21 14:13:37;;;;;;;1.52;0.60;;;;;;;;;;5082533;28;20561;-66
2023/09/21 14:16:03;;;;;;;2.05;0.70;;;;;;;;;;5083030;28;20041;-66
2023/09/21 14:18:30;;;;;;;1.52;0.68;;;;;;;;;;5083148;28;20032;-67
2023/09/21 14:20:56;;;;;;;1.55;0.65;;;;;;;;;;5083238;28;20031;-67
2023/09/21 14:23:22;;;;;;;1.60;0.57;;;;;;;;;;5081739;28;20036;-67
2023/09/21 14:25:48;;;;;;;2.35;0.77;;;;;;;;;;5081822;28;20040;-67
2023/09/21 14:28:14;;;;;;;1.20;0.50;;;;;;;;;;5082616;28;20028;-67
2023/09/21 14:30:40;;;;;;;1.50;0.70;;;;;;;;;;5082508;28;20032;-67
2023/09/21 14:33:07;;;;;;;2.30;0.80;;;;;;;;;;5082749;28;20032;-67
2023/09/21 14:35:34;;;;;;;3.97;1.42;;;;;;;;;;5082810;28;20036;-67
2023/09/21 14:38:01;;;;;;;1.58;0.60;;;;;;;;;;5081515;28;20040;-67
2023/09/21 14:40:27;;;;;;;1.63;0.70;;;;;;;;;;5080392;28;20027;-67
2023/09/21 14:42:53;;;;;;;1.65;0.60;;;;;;;;;;5081914;28;20028;-67
2023/09/21 14:45:21;;;;;;;2.70;0.70;;;;;;;;;;5081501;28;20786;-67